Time;durP1;ratioP1;P1;durP2;ratioP2;P2;SDS_P1;SDS_P2;PMS_P1;PMS_P2;Temp;Humidity;BMP_temperature;BMP_pressure;BME280_temperature;BME280_humidity;BME280_pressure;Samples;Min_cycle;Max_cycle;Signal;HPM_P1;HPM_P2
2023/11/10 00:01:00;;;;;;;3.03;2.00;;;8.50;99.90;;;;;;5075996;28;20552;-71
2023/11/10 00:03:28;;;;;;;2.20;1.90;;;8.50;99.90;;;;;;5076832;28;20988;-71
2023/11/10 00:05:56;;;;;;;2.70;2.23;;;8.50;99.90;;;;;;5077521;28;20934;-71
2023/11/10 00:08:24;;;;;;;3.50;2.20;;;8.50;99.90;;;;;;5075994;28;20444;-72
2023/11/10 00:10:53;;;;;;;2.40;2.10;;;8.50;99.90;;;;;;5074387;28;20469;-72
2023/11/10 00:13:21;;;;;;;2.17;1.80;;;8.50;99.90;;;;;;5075685;28;20429;-72
2023/11/10 00:15:50;;;;;;;2.63;2.03;;;8.50;99.90;;;;;;5075605;28;20871;-71
2023/11/10 00:18:18;;;;;;;3.13;1.97;;;8.40;99.90;;;;;;5075459;28;20437;-71
2023/11/10 00:20:47;;;;;;;2.80;2.17;;;8.40;99.90;;;;;;5075440;28;20826;-71
2023/11/10 00:23:15;;;;;;;3.47;2.50;;;8.40;99.90;;;;;;5074192;28;20451;-71
2023/11/10 00:25:43;;;;;;;2.67;1.93;;;8.40;99.90;;;;;;5075396;28;20450;-71
2023/11/10 00:28:11;;;;;;;3.73;2.43;;;8.40;99.90;;;;;;5075327;28;20439;-71
2023/11/10 00:30:39;;;;;;;4.40;2.70;;;8.40;99.90;;;;;;5073771;28;20509;-71
2023/11/10 00:33:08;;;;;;;3.50;3.20;;;8.40;99.90;;;;;;5075558;28;20968;-71
2023/11/10 00:35:37;;;;;;;4.10;3.03;;;8.40;99.90;;;;;;5076511;28;20440;-71
2023/11/10 00:38:05;;;;;;;4.90;2.70;;;8.40;99.90;;;;;;5076685;28;20437;-72
2023/11/10 00:40:34;;;;;;;4.00;2.80;;;8.40;99.90;;;;;;5075436;28;20469;-72
2023/11/10 00:43:03;;;;;;;4.00;3.47;;;8.40;99.90;;;;;;5074940;28;20448;-72
2023/11/10 00:45:31;;;;;;;3.90;3.37;;;8.40;99.90;;;;;;5075294;28;20448;-71
2023/11/10 00:48:00;;;;;;;5.10;3.50;;;8.40;99.90;;;;;;5075419;28;20868;-71
2023/11/10 00:50:30;;;;;;;4.43;3.90;;;8.40;99.90;;;;;;5076554;28;20460;-71
2023/11/10 00:52:58;;;;;;;5.00;4.00;;;8.30;99.90;;;;;;5075172;28;20487;-72
2023/11/10 00:55:26;;;;;;;5.70;4.47;;;8.40;99.90;;;;;;5074823;28;20437;-71
2023/11/10 00:57:54;;;;;;;6.10;5.30;;;8.30;99.90;;;;;;5075702;28;20536;-71
2023/11/10 01:00:23;;;;;;;6.10;5.50;;;8.30;99.90;;;;;;5074369;28;21016;-71
2023/11/10 01:02:51;;;;;;;6.47;5.87;;;8.40;99.90;;;;;;5073513;28;21029;-71
2023/11/10 01:05:20;;;;;;;8.07;6.83;;;8.30;99.90;;;;;;5075260;28;20441;-71
2023/11/10 01:07:50;;;;;;;6.73;6.23;;;8.30;99.90;;;;;;5074220;28;20950;-71
2023/11/10 01:10:18;;;;;;;8.23;7.53;;;8.30;99.90;;;;;;5074763;28;20823;-71
2023/11/10 01:12:47;;;;;;;8.63;7.83;;;8.30;99.90;;;;;;5075351;28;21057;-71
2023/11/10 01:15:16;;;;;;;8.77;7.97;;;8.40;99.90;;;;;;5075162;28;20516;-71
2023/11/10 01:17:44;;;;;;;8.17;7.50;;;8.30;99.90;;;;;;5075719;28;20448;-71
2023/11/10 01:20:12;;;;;;;9.80;8.90;;;8.30;99.90;;;;;;5074586;28;20476;-72
2023/11/10 01:22:41;;;;;;;9.50;8.50;;;8.40;99.90;;;;;;5073423;28;20970;-72
2023/11/10 01:25:13;;;;;;;10.60;9.70;;;8.40;99.90;;;;;;5074774;28;20491;-72
2023/11/10 01:27:42;;;;;;;10.63;9.60;;;8.30;99.90;;;;;;5073391;28;20437;-72
2023/11/10 01:30:12;;;;;;;10.37;9.50;;;8.30;99.90;;;;;;5073177;28;20473;-72
2023/11/10 01:32:41;;;;;;;10.43;9.53;;;8.30;99.90;;;;;;5073049;28;20498;-72
2023/11/10 01:35:11;;;;;;;11.70;10.80;;;8.30;99.90;;;;;;5074751;28;20433;-72
2023/11/10 01:37:41;;;;;;;11.60;10.60;;;8.30;99.90;;;;;;5074427;28;20441;-72
2023/11/10 01:40:11;;;;;;;11.50;10.60;;;8.30;99.90;;;;;;5074444;28;20965;-72
2023/11/10 01:42:41;;;;;;;10.87;10.00;;;8.40;99.90;;;;;;5074408;28;20413;-71
2023/11/10 01:45:11;;;;;;;11.20;10.30;;;8.30;99.90;;;;;;5072953;28;20499;-72
2023/11/10 01:47:40;;;;;;;12.20;11.20;;;8.40;99.90;;;;;;5072810;28;20496;-72
2023/11/10 01:50:11;;;;;;;12.70;11.50;;;8.30;99.90;;;;;;5072994;28;20461;-73
2023/11/10 01:52:41;;;;;;;11.03;10.17;;;8.30;99.90;;;;;;5073170;28;20465;-71
2023/11/10 01:55:16;;;;;;;13.43;11.83;;;8.30;99.90;;;;;;5073357;28;20495;-71
2023/11/10 01:57:46;;;;;;;13.23;12.17;;;8.40;99.90;;;;;;5074604;28;20912;-71
2023/11/10 02:00:17;;;;;;;11.40;10.50;;;8.40;99.90;;;;;;5072995;28;20996;-71
2023/11/10 02:02:46;;;;;;;12.20;11.10;;;8.40;99.90;;;;;;5073179;28;20799;-71
2023/11/10 02:05:15;;;;;;;13.57;12.20;;;8.40;99.90;;;;;;5073282;28;20444;-71
2023/11/10 02:07:43;;;;;;;12.27;11.20;;;8.40;99.90;;;;;;5074149;28;20437;-71
2023/11/10 02:10:13;;;;;;;12.47;10.83;;;8.40;99.90;;;;;;5074232;28;20452;-71
2023/11/10 02:12:50;;;;;;;11.27;10.37;;;8.40;99.90;;;;;;5072830;28;20523;-71
2023/11/10 02:15:19;;;;;;;11.23;10.23;;;8.40;99.90;;;;;;5073245;28;20458;-71
2023/11/10 02:17:47;;;;;;;11.23;10.33;;;8.40;99.90;;;;;;5072974;28;20941;-71
2023/11/10 02:20:15;;;;;;;10.10;9.20;;;8.40;99.90;;;;;;5073212;28;20465;-71
2023/11/10 02:22:43;;;;;;;8.60;7.90;;;8.40;99.90;;;;;;5073126;28;21021;-71
2023/11/10 02:25:15;;;;;;;9.67;8.77;;;8.40;99.90;;;;;;5074184;28;20432;-71
2023/11/10 02:27:44;;;;;;;11.37;10.27;;;8.30;99.90;;;;;;5074799;28;20497;-71
2023/11/10 02:30:13;;;;;;;11.40;10.30;;;8.30;99.90;;;;;;5074407;28;20562;-71
2023/11/10 02:32:42;;;;;;;10.43;9.50;;;8.30;99.90;;;;;;5074102;28;20469;-71
2023/11/10 02:35:12;;;;;;;10.57;9.40;;;8.30;99.90;;;;;;5074613;28;20453;-71
2023/11/10 02:37:40;;;;;;;9.70;8.90;;;8.30;99.90;;;;;;5073384;28;20517;-71
2023/11/10 02:40:09;;;;;;;10.07;9.17;;;8.30;99.90;;;;;;5073481;28;20463;-71
2023/11/10 02:42:39;;;;;;;9.57;8.67;;;8.30;99.90;;;;;;5074064;28;20815;-71
2023/11/10 02:45:08;;;;;;;10.10;9.30;;;8.30;99.90;;;;;;5073514;28;20445;-71
2023/11/10 02:47:36;;;;;;;9.40;8.50;;;8.30;99.90;;;;;;5073398;28;20526;-71
2023/11/10 02:50:06;;;;;;;10.53;9.63;;;8.30;99.90;;;;;;5073214;28;20465;-71
2023/11/10 02:52:34;;;;;;;9.10;8.30;;;8.30;99.90;;;;;;5072812;28;20499;-71
2023/11/10 02:55:03;;;;;;;10.50;9.50;;;8.30;99.90;;;;;;5072116;28;20451;-71
2023/11/10 02:57:31;;;;;;;9.83;9.00;;;8.30;99.90;;;;;;5073639;28;20433;-71
2023/11/10 03:00:01;;;;;;;9.83;9.07;;;8.30;99.90;;;;;;5073280;28;20456;-71
2023/11/10 03:02:30;;;;;;;9.73;8.83;;;8.30;99.90;;;;;;5072104;28;20929;-71
2023/11/10 03:04:58;;;;;;;8.57;7.80;;;8.30;99.90;;;;;;5072222;28;20441;-71
2023/11/10 03:07:26;;;;;;;10.87;9.13;;;8.30;99.90;;;;;;5073274;28;20437;-71
2023/11/10 03:09:54;;;;;;;9.00;8.23;;;8.30;99.90;;;;;;5072154;28;20476;-71
2023/11/10 03:12:23;;;;;;;9.03;8.13;;;8.30;99.90;;;;;;5073202;28;20546;-71
2023/11/10 03:14:51;;;;;;;9.33;8.43;;;8.20;99.90;;;;;;5072276;28;20449;-71
2023/11/10 03:17:21;;;;;;;8.40;7.80;;;8.30;99.90;;;;;;5072190;28;20450;-71
2023/11/10 03:19:49;;;;;;;9.10;8.40;;;8.30;99.90;;;;;;5073359;28;20456;-71
2023/11/10 03:22:18;;;;;;;10.07;9.20;;;8.30;99.90;;;;;;5072084;28;20878;-71
2023/11/10 03:24:46;;;;;;;9.20;8.30;;;8.30;99.90;;;;;;5072777;28;20455;-71
2023/11/10 03:27:15;;;;;;;8.77;8.03;;;8.30;99.90;;;;;;5077669;28;20792;-71
2023/11/10 03:29:44;;;;;;;8.53;7.83;;;8.30;99.90;;;;;;5077474;28;20481;-71
2023/11/10 03:32:12;;;;;;;8.30;7.60;;;8.30;99.90;;;;;;5077912;28;20457;-71
2023/11/10 03:34:42;;;;;;;9.13;8.30;;;8.30;99.90;;;;;;5076850;28;20487;-71
2023/11/10 03:37:11;;;;;;;8.80;8.00;;;8.30;99.90;;;;;;5077211;28;20510;-71
2023/11/10 03:39:40;;;;;;;8.90;8.10;;;8.30;99.90;;;;;;5074965;28;20467;-71
2023/11/10 03:42:09;;;;;;;9.00;8.23;;;8.30;99.90;;;;;;5074958;28;20453;-71
2023/11/10 03:44:37;;;;;;;8.70;8.00;;;8.30;99.90;;;;;;5076152;28;20437;-71
2023/11/10 03:47:05;;;;;;;9.57;8.87;;;8.30;99.90;;;;;;5076171;28;20771;-71
2023/11/10 03:49:35;;;;;;;8.73;8.03;;;8.30;99.90;;;;;;5075997;28;20510;-71
2023/11/10 03:52:05;;;;;;;9.93;9.10;;;8.30;99.90;;;;;;5076499;28;20444;-71
2023/11/10 03:54:34;;;;;;;10.67;9.60;;;8.30;99.90;;;;;;5076550;28;20954;-71
2023/11/10 03:57:02;;;;;;;10.23;9.33;;;8.30;99.90;;;;;;5076068;28;20444;-71
2023/11/10 03:59:31;;;;;;;10.40;9.50;;;8.30;99.90;;;;;;5075992;28;20877;-71
2023/11/10 04:01:59;;;;;;;11.47;10.47;;;8.30;99.90;;;;;;5076006;28;20429;-71
2023/11/10 04:04:27;;;;;;;11.70;10.60;;;8.30;99.90;;;;;;5074572;28;20440;-71
2023/11/10 04:06:55;;;;;;;13.00;11.93;;;8.30;99.90;;;;;;5075872;28;20442;-71
2023/11/10 04:09:26;;;;;;;12.30;11.20;;;8.30;99.90;;;;;;5075689;28;20552;-71
2023/11/10 04:11:55;;;;;;;14.03;12.83;;;8.30;99.90;;;;;;5075760;28;20809;-71
2023/11/10 04:14:23;;;;;;;15.50;13.90;;;8.30;99.90;;;;;;5075585;28;21023;-71
2023/11/10 04:16:51;;;;;;;14.37;13.20;;;8.30;99.90;;;;;;5076101;28;20436;-71
2023/11/10 04:19:19;;;;;;;14.27;13.00;;;8.20;99.90;;;;;;5074640;28;20469;-71
2023/11/10 04:21:47;;;;;;;13.47;12.20;;;8.20;99.90;;;;;;5075686;28;20469;-71
2023/11/10 04:24:15;;;;;;;14.17;12.97;;;8.20;99.90;;;;;;5075817;28;20437;-71
2023/11/10 04:26:45;;;;;;;13.00;11.90;;;8.20;99.90;;;;;;5075646;28;20437;-71
2023/11/10 04:29:13;;;;;;;14.27;13.07;;;8.30;99.90;;;;;;5074074;28;20543;-71
2023/11/10 04:31:42;;;;;;;13.83;12.73;;;8.30;99.90;;;;;;5075351;28;20447;-71
2023/11/10 04:34:10;;;;;;;12.57;11.50;;;8.20;99.90;;;;;;5075568;28;20469;-71
2023/11/10 04:36:43;;;;;;;13.00;11.90;;;8.30;99.90;;;;;;5075314;28;20433;-71
2023/11/10 04:39:11;;;;;;;13.10;12.00;;;8.30;99.90;;;;;;5073973;28;20964;-71
2023/11/10 04:41:39;;;;;;;13.60;12.27;;;8.30;99.90;;;;;;5075744;28;20438;-71
2023/11/10 04:44:09;;;;;;;12.30;11.20;;;8.20;99.90;;;;;;5075142;28;21025;-71
2023/11/10 04:46:41;;;;;;;11.87;10.70;;;8.30;99.90;;;;;;5075072;28;20523;-71
2023/11/10 04:49:10;;;;;;;13.77;11.37;;;8.20;99.90;;;;;;5075240;28;20422;-71
2023/11/10 04:51:38;;;;;;;11.17;9.90;;;8.30;99.90;;;;;;5074912;28;20511;-71
2023/11/10 04:54:06;;;;;;;11.10;10.20;;;8.20;99.90;;;;;;5074908;28;20612;-71
2023/11/10 04:56:43;;;;;;;11.00;10.00;;;8.20;99.90;;;;;;5074829;28;20426;-71
2023/11/10 04:59:14;;;;;;;10.33;9.50;;;8.20;99.90;;;;;;5075257;28;20420;-71
2023/11/10 05:01:42;;;;;;;11.23;10.13;;;8.20;99.90;;;;;;5074759;28;20533;-71
2023/11/10 05:04:13;;;;;;;10.60;8.97;;;8.20;99.90;;;;;;5075278;28;20437;-71
2023/11/10 05:06:41;;;;;;;10.17;9.17;;;8.20;99.90;;;;;;5075181;28;20431;-71
2023/11/10 05:09:10;;;;;;;9.70;8.70;;;8.20;99.90;;;;;;5079746;28;20484;-71
2023/11/10 05:11:38;;;;;;;12.87;11.50;;;8.20;99.90;;;;;;5080269;28;20506;-72
2023/11/10 05:14:06;;;;;;;9.10;8.20;;;8.20;99.90;;;;;;5075181;28;20540;-71
2023/11/10 05:16:35;;;;;;;9.63;8.73;;;8.20;99.90;;;;;;5077836;28;20433;-71
2023/11/10 05:19:03;;;;;;;9.40;8.60;;;8.20;99.90;;;;;;5077313;28;20569;-71
2023/11/10 05:21:32;;;;;;;9.10;8.30;;;8.20;99.90;;;;;;5075642;28;20958;-70
2023/11/10 05:24:00;;;;;;;7.80;7.00;;;8.20;99.90;;;;;;5075388;28;20441;-71
2023/11/10 05:26:30;;;;;;;8.27;7.57;;;8.20;99.90;;;;;;5075440;28;20445;-71
2023/11/10 05:28:58;;;;;;;9.43;8.57;;;8.20;99.90;;;;;;5075337;28;20445;-71
2023/11/10 05:31:26;;;;;;;8.73;8.00;;;8.20;99.90;;;;;;5075267;28;20449;-71
2023/11/10 05:33:57;;;;;;;9.10;7.80;;;8.20;99.90;;;;;;5074826;28;20479;-71
2023/11/10 05:36:25;;;;;;;9.40;8.40;;;8.20;99.90;;;;;;5074614;28;20482;-71
2023/11/10 05:38:53;;;;;;;12.07;10.97;;;8.20;99.90;;;;;;5074642;28;20445;-71
2023/11/10 05:41:21;;;;;;;8.57;7.67;;;8.20;99.90;;;;;;5074369;28;20437;-71
2023/11/10 05:43:49;;;;;;;8.83;7.83;;;8.20;99.90;;;;;;5075065;28;20604;-71
2023/11/10 05:46:18;;;;;;;9.70;7.30;;;8.20;99.90;;;;;;5074280;28;20437;-71
2023/11/10 05:48:46;;;;;;;7.73;7.03;;;8.20;99.90;;;;;;5074141;28;20516;-71
2023/11/10 05:51:15;;;;;;;9.00;7.20;;;8.20;99.90;;;;;;5075188;28;20556;-71
2023/11/10 05:53:44;;;;;;;11.50;7.30;;;8.20;99.90;;;;;;5073880;28;20472;-71
2023/11/10 05:56:12;;;;;;;7.47;6.77;;;8.20;99.90;;;;;;5073878;28;20529;-71
2023/11/10 05:58:40;;;;;;;7.90;7.10;;;8.20;99.90;;;;;;5073910;28;20502;-71
2023/11/10 06:01:08;;;;;;;7.97;6.83;;;8.20;99.90;;;;;;5073977;28;20481;-70
2023/11/10 06:03:37;;;;;;;9.27;6.87;;;8.20;99.90;;;;;;5073834;28;21010;-71
2023/11/10 06:06:06;;;;;;;7.63;6.83;;;8.20;99.90;;;;;;5073926;28;20482;-71
2023/11/10 06:08:36;;;;;;;7.57;6.87;;;8.20;99.90;;;;;;5073948;28;20543;-71
2023/11/10 06:11:05;;;;;;;9.17;6.73;;;8.20;99.90;;;;;;5073624;28;20555;-71
2023/11/10 06:13:33;;;;;;;6.67;6.17;;;8.20;99.90;;;;;;5073880;28;20445;-71
2023/11/10 06:16:03;;;;;;;7.77;6.97;;;8.20;99.90;;;;;;5075297;28;20443;-71
2023/11/10 06:18:32;;;;;;;8.17;7.13;;;8.20;99.90;;;;;;5074300;28;20437;-71
2023/11/10 06:21:00;;;;;;;8.40;5.93;;;8.20;99.90;;;;;;5076846;28;20453;-71
2023/11/10 06:23:29;;;;;;;7.77;7.00;;;8.20;99.90;;;;;;5077260;28;20433;-71
2023/11/10 06:25:59;;;;;;;8.20;7.50;;;8.10;99.90;;;;;;5073395;28;20440;-71
2023/11/10 06:28:27;;;;;;;12.17;7.37;;;8.20;99.90;;;;;;5072050;28;20481;-71
2023/11/10 06:30:56;;;;;;;8.37;7.47;;;8.20;99.90;;;;;;5073105;28;20490;-71
2023/11/10 06:33:25;;;;;;;8.30;7.57;;;8.20;99.90;;;;;;5073436;28;20452;-71
2023/11/10 06:35:53;;;;;;;8.73;7.37;;;8.20;99.90;;;;;;5073435;28;20988;-71
2023/11/10 06:38:21;;;;;;;8.50;7.17;;;8.20;99.90;;;;;;5074032;28;20550;-71
2023/11/10 06:40:50;;;;;;;8.40;7.07;;;8.10;99.90;;;;;;5074473;28;20549;-71
2023/11/10 06:43:19;;;;;;;8.00;7.27;;;8.10;99.90;;;;;;5074421;28;20445;-71
2023/11/10 06:45:47;;;;;;;8.00;7.20;;;8.10;99.90;;;;;;5075023;28;20439;-71
2023/11/10 06:48:15;;;;;;;7.37;6.77;;;8.10;99.90;;;;;;5074550;28;20437;-71
2023/11/10 06:50:44;;;;;;;8.40;7.50;;;8.10;99.90;;;;;;5073920;28;20962;-71
2023/11/10 06:53:12;;;;;;;8.73;7.37;;;8.10;99.90;;;;;;5074064;28;20484;-71
2023/11/10 06:55:41;;;;;;;8.60;7.60;;;8.10;99.90;;;;;;5074153;28;20562;-71
2023/11/10 06:58:10;;;;;;;9.63;8.03;;;8.10;99.90;;;;;;5073307;28;20820;-71
2023/11/10 07:00:40;;;;;;;8.00;7.20;;;8.10;99.90;;;;;;5078484;28;20530;-71
2023/11/10 07:03:12;;;;;;;8.93;7.10;;;8.10;99.90;;;;;;5078453;28;20523;-71
2023/11/10 07:05:41;;;;;;;7.87;7.17;;;8.10;99.90;;;;;;5078306;28;20424;-71
2023/11/10 07:08:10;;;;;;;7.80;7.00;;;8.10;99.90;;;;;;5078678;28;20800;-71
2023/11/10 07:10:41;;;;;;;6.63;6.03;;;8.20;99.90;;;;;;5078344;28;20496;-71
2023/11/10 07:13:14;;;;;;;7.70;6.97;;;8.20;99.90;;;;;;5079040;28;20429;-71
2023/11/10 07:15:45;;;;;;;7.60;6.87;;;8.20;99.90;;;;;;5078192;28;20492;-71
2023/11/10 07:18:13;;;;;;;9.70;8.07;;;8.20;99.90;;;;;;5078156;28;20556;-71
2023/11/10 07:20:42;;;;;;;8.83;8.00;;;8.20;99.90;;;;;;5078222;28;20464;-71
2023/11/10 07:23:10;;;;;;;8.07;7.30;;;8.20;99.90;;;;;;5078825;28;20540;-71
2023/11/10 07:25:39;;;;;;;8.40;7.53;;;8.20;99.90;;;;;;5078135;28;20557;-71
2023/11/10 07:28:07;;;;;;;8.20;7.40;;;8.20;99.90;;;;;;5078423;28;20429;-71
2023/11/10 07:30:35;;;;;;;9.30;7.67;;;8.20;99.90;;;;;;5077900;28;20490;-71
2023/11/10 07:33:05;;;;;;;8.80;7.90;;;8.20;99.90;;;;;;5078097;28;20951;-71
2023/11/10 07:35:33;;;;;;;7.73;7.13;;;8.20;99.90;;;;;;5078313;28;20469;-71
2023/11/10 07:38:01;;;;;;;9.10;8.20;;;8.20;99.90;;;;;;5078347;28;20430;-71
2023/11/10 07:40:29;;;;;;;8.70;7.83;;;8.20;99.90;;;;;;5077686;28;20543;-71
2023/11/10 07:42:58;;;;;;;8.77;7.87;;;8.20;99.90;;;;;;5077926;28;20452;-71
2023/11/10 07:45:28;;;;;;;8.33;7.73;;;8.30;99.90;;;;;;5077764;28;20934;-71
2023/11/10 07:47:57;;;;;;;8.67;7.90;;;8.20;99.90;;;;;;5076420;28;20831;-71
2023/11/10 07:50:26;;;;;;;9.27;8.37;;;8.30;99.90;;;;;;5076278;28;21048;-71
2023/11/10 07:52:54;;;;;;;8.63;7.83;;;8.30;99.90;;;;;;5077557;28;20987;-71
2023/11/10 07:55:24;;;;;;;8.47;7.67;;;8.30;99.90;;;;;;5077235;28;20465;-71
2023/11/10 07:57:52;;;;;;;9.33;8.43;;;8.30;99.90;;;;;;5077233;28;20433;-71
2023/11/10 08:00:20;;;;;;;9.13;8.30;;;8.30;99.90;;;;;;5077164;28;20452;-71
2023/11/10 08:02:51;;;;;;;9.10;8.20;;;8.30;99.90;;;;;;5077302;28;20433;-71
2023/11/10 08:05:21;;;;;;;9.50;8.70;;;8.30;99.90;;;;;;5077889;28;20879;-71
2023/11/10 08:07:52;;;;;;;9.70;8.30;;;8.30;99.90;;;;;;5077526;28;20429;-71
2023/11/10 08:10:21;;;;;;;8.83;8.13;;;8.30;99.90;;;;;;5076383;28;20460;-71
2023/11/10 08:12:50;;;;;;;9.40;8.50;;;8.30;99.90;;;;;;5077213;28;20434;-71
2023/11/10 08:15:18;;;;;;;15.33;9.27;;;8.30;99.90;;;;;;5077207;28;20474;-71
2023/11/10 08:17:46;;;;;;;9.03;8.30;;;8.30;99.90;;;;;;5076707;28;20437;-71
2023/11/10 08:20:14;;;;;;;10.70;9.80;;;8.40;99.90;;;;;;5076601;28;20464;-71
2023/11/10 08:22:44;;;;;;;10.10;9.30;;;8.40;99.90;;;;;;5075480;28;20445;-71
2023/11/10 08:25:13;;;;;;;9.70;9.00;;;8.40;99.90;;;;;;5075439;28;20469;-71
2023/11/10 08:27:41;;;;;;;9.30;8.60;;;8.40;99.90;;;;;;5076623;28;20450;-71
2023/11/10 08:30:11;;;;;;;9.93;8.90;;;8.40;99.90;;;;;;5074610;28;20484;-71
2023/11/10 08:32:40;;;;;;;9.47;8.67;;;8.50;99.90;;;;;;5075474;28;20437;-72
2023/11/10 08:35:09;;;;;;;11.30;9.40;;;8.50;99.90;;;;;;5074054;28;20841;-71
2023/11/10 08:37:37;;;;;;;9.60;8.80;;;8.50;99.90;;;;;;5074248;28;20502;-71
2023/11/10 08:40:09;;;;;;;9.67;8.87;;;8.50;99.90;;;;;;5075353;28;20501;-71
2023/11/10 08:42:41;;;;;;;10.10;9.30;;;8.60;99.90;;;;;;5077544;28;20562;-71
2023/11/10 08:45:14;;;;;;;11.93;8.97;;;8.60;99.90;;;;;;5077696;28;20456;-71
2023/11/10 08:47:42;;;;;;;9.30;8.40;;;8.60;99.90;;;;;;5075698;28;20445;-71
2023/11/10 08:50:11;;;;;;;9.30;8.50;;;8.60;99.90;;;;;;5075015;28;20465;-71
2023/11/10 08:52:41;;;;;;;8.93;8.23;;;8.70;99.90;;;;;;5075107;28;20437;-71
2023/11/10 08:55:11;;;;;;;9.70;8.10;;;8.70;99.90;;;;;;5074936;28;20440;-71
2023/11/10 08:57:41;;;;;;;9.03;7.73;;;8.70;99.90;;;;;;5073990;28;20519;-71
2023/11/10 09:00:11;;;;;;;9.00;8.13;;;8.70;99.90;;;;;;5075157;28;20522;-70
2023/11/10 09:02:41;;;;;;;9.00;8.23;;;8.80;99.90;;;;;;5075653;28;20507;-71
2023/11/10 09:05:10;;;;;;;9.03;8.13;;;8.80;99.90;;;;;;5075043;28;20528;-71
2023/11/10 09:07:40;;;;;;;8.50;7.60;;;8.80;99.90;;;;;;5075033;28;20516;-71
2023/11/10 09:10:10;;;;;;;7.50;6.93;;;8.90;99.90;;;;;;5074981;28;20465;-71
2023/11/10 09:12:42;;;;;;;7.70;7.10;;;8.90;99.90;;;;;;5075218;28;20478;-71
2023/11/10 09:15:14;;;;;;;7.80;7.10;;;8.90;99.90;;;;;;5075108;28;20432;-71
2023/11/10 09:17:43;;;;;;;7.70;6.93;;;8.90;99.90;;;;;;5074772;28;20429;-71
2023/11/10 09:20:13;;;;;;;7.53;6.83;;;9.00;99.90;;;;;;5075014;28;20493;-71
2023/11/10 09:22:41;;;;;;;6.97;6.27;;;9.00;99.90;;;;;;5073908;28;20468;-71
2023/11/10 09:25:15;;;;;;;6.30;5.70;;;9.00;99.90;;;;;;5075055;28;20444;-71
2023/11/10 09:27:45;;;;;;;6.67;5.97;;;9.00;99.90;;;;;;5073774;28;20503;-71
2023/11/10 09:30:14;;;;;;;6.57;5.70;;;9.00;99.90;;;;;;5074721;28;20989;-71
2023/11/10 09:32:43;;;;;;;11.03;6.70;;;9.00;99.90;;;;;;5074873;28;20939;-71
2023/11/10 09:35:16;;;;;;;7.57;5.90;;;9.00;99.90;;;;;;5074862;28;20437;-70
2023/11/10 09:37:46;;;;;;;6.67;5.60;;;9.10;99.90;;;;;;5074856;28;20457;-71
2023/11/10 09:40:19;;;;;;;6.03;5.43;;;9.10;99.90;;;;;;5073615;28;20471;-71
2023/11/10 09:42:48;;;;;;;7.50;5.27;;;9.10;99.90;;;;;;5075142;28;20426;-71
2023/11/10 09:45:18;;;;;;;8.73;5.30;;;9.10;99.90;;;;;;5074634;28;20558;-71
2023/11/10 09:47:51;;;;;;;9.20;5.83;;;9.20;99.90;;;;;;5075227;28;20452;-71
2023/11/10 09:50:25;;;;;;;5.70;4.57;;;9.20;99.90;;;;;;5075128;28;20475;-71
2023/11/10 09:52:56;;;;;;;5.43;5.00;;;9.20;99.90;;;;;;5075078;28;20772;-71
2023/11/10 09:55:25;;;;;;;7.87;5.20;;;9.30;99.90;;;;;;5074990;28;20413;-71
2023/11/10 09:57:55;;;;;;;6.67;5.40;;;9.30;99.90;;;;;;5073722;28;20475;-71
2023/11/10 10:00:24;;;;;;;5.23;4.63;;;9.30;99.90;;;;;;5074083;28;20686;-70
2023/11/10 10:02:52;;;;;;;5.00;4.50;;;9.40;99.90;;;;;;5074149;28;20792;-71
2023/11/10 10:05:20;;;;;;;6.23;4.83;;;9.50;99.90;;;;;;5073593;28;20487;-71
2023/11/10 10:07:49;;;;;;;5.10;4.60;;;9.50;99.90;;;;;;5073479;28;20440;-71
2023/11/10 10:10:19;;;;;;;5.10;4.50;;;9.50;99.90;;;;;;5072508;28;20496;-71
2023/11/10 10:12:47;;;;;;;6.03;4.57;;;9.60;99.90;;;;;;5072206;28;20549;-71
2023/11/10 10:15:28;;;;;;;5.30;4.07;;;9.60;99.90;;;;;;5073560;28;20440;-71
2023/11/10 10:18:04;;;;;;;6.63;4.73;;;9.70;99.90;;;;;;5073421;28;20463;-71
2023/11/10 10:20:32;;;;;;;4.83;4.37;;;9.70;99.90;;;;;;5073667;28;20510;-71
2023/11/10 10:23:05;;;;;;;6.50;4.47;;;9.70;99.90;;;;;;5073785;28;20462;-71
2023/11/10 10:25:33;;;;;;;5.97;4.50;;;9.70;99.90;;;;;;5073348;28;20524;-71
2023/11/10 10:28:02;;;;;;;5.80;3.90;;;9.70;99.90;;;;;;5073397;28;20977;-71
2023/11/10 10:30:32;;;;;;;7.17;4.10;;;9.70;99.90;;;;;;5073199;28;21051;-71
2023/11/10 10:33:00;;;;;;;6.07;4.27;;;9.80;99.90;;;;;;5073781;28;20910;-71
2023/11/10 10:35:29;;;;;;;6.50;4.90;;;9.70;99.90;;;;;;5073028;28;20468;-71
2023/11/10 10:38:04;;;;;;;4.30;3.87;;;9.80;99.90;;;;;;5073534;28;20491;-71
2023/11/10 10:40:35;;;;;;;5.60;4.00;;;9.80;99.90;;;;;;5073212;28;20958;-71
2023/11/10 10:43:04;;;;;;;4.47;4.07;;;9.70;99.90;;;;;;5073331;28;20422;-71
2023/11/10 10:45:36;;;;;;;3.57;3.27;;;9.80;99.90;;;;;;5073754;28;20429;-71
2023/11/10 10:48:06;;;;;;;8.13;4.30;;;9.80;99.90;;;;;;5073492;28;20887;-71
2023/11/10 10:50:34;;;;;;;4.50;3.33;;;9.80;99.90;;;;;;5071792;28;20464;-71
2023/11/10 10:53:03;;;;;;;4.53;2.63;;;9.80;99.90;;;;;;5073725;28;20444;-71
2023/11/10 10:55:35;;;;;;;6.30;3.00;;;9.80;99.90;;;;;;5073782;28;20433;-71
2023/11/10 10:58:03;;;;;;;4.00;3.00;;;9.80;99.90;;;;;;5073742;28;20460;-71
2023/11/10 11:00:32;;;;;;;3.53;2.60;;;9.80;99.90;;;;;;5073139;28;20453;-71
2023/11/10 11:03:21;;;;;;;4.80;2.70;;;9.80;99.90;;;;;;5073067;28;20441;-71
2023/11/10 11:06:05;;;;;;;4.83;3.33;;;9.80;99.90;;;;;;5073252;28;20501;-71
2023/11/10 11:08:57;;;;;;;3.73;3.00;;;9.80;99.90;;;;;;5072887;28;20418;-71
2023/11/10 11:11:43;;;;;;;5.37;3.37;;;9.90;99.90;;;;;;5073283;28;20428;-71
2023/11/10 11:14:37;;;;;;;4.37;3.10;;;9.90;99.90;;;;;;5073166;28;20422;-71
2023/11/10 11:17:25;;;;;;;8.23;4.37;;;9.90;99.90;;;;;;5071622;28;20465;-71
2023/11/10 11:19:55;;;;;;;6.30;3.83;;;9.90;99.90;;;;;;5072758;28;20475;-71
2023/11/10 11:22:24;;;;;;;6.07;4.30;;;9.90;99.90;;;;;;5072823;28;20417;-71
2023/11/10 11:24:52;;;;;;;5.60;4.17;;;10.00;99.90;;;;;;5072743;28;20441;-71
2023/11/10 11:27:23;;;;;;;4.20;3.50;;;10.00;99.90;;;;;;5072947;28;20437;-71
2023/11/10 11:29:56;;;;;;;3.93;3.60;;;10.00;99.90;;;;;;5072668;28;20856;-71
2023/11/10 11:32:30;;;;;;;5.03;3.27;;;10.00;99.90;;;;;;5073234;28;20799;-71
2023/11/10 11:35:00;;;;;;;5.10;3.90;;;10.00;99.90;;;;;;5072669;28;20455;-71
2023/11/10 11:37:31;;;;;;;3.90;2.50;;;10.00;99.90;;;;;;5071198;28;20479;-71
2023/11/10 11:40:01;;;;;;;8.23;3.63;;;10.10;99.90;;;;;;5072863;28;20518;-71
2023/11/10 11:42:36;;;;;;;4.90;2.83;;;10.10;99.90;;;;;;5072638;28;20436;-71
2023/11/10 11:45:12;;;;;;;4.97;2.70;;;10.10;99.90;;;;;;5073418;28;20504;-71
2023/11/10 11:47:40;;;;;;;4.27;2.90;;;10.10;99.90;;;;;;5082212;28;20445;-71
2023/11/10 11:50:11;;;;;;;4.63;2.50;;;10.10;99.90;;;;;;5079313;28;20576;-71
2023/11/10 11:52:40;;;;;;;6.17;2.27;;;10.10;99.90;;;;;;5077321;28;20445;-71
2023/11/10 11:55:09;;;;;;;4.60;2.97;;;10.10;99.90;;;;;;5079566;28;20433;-71
2023/11/10 11:57:38;;;;;;;3.30;2.50;;;10.10;99.90;;;;;;5077437;28;20496;-71
2023/11/10 12:00:09;;;;;;;3.93;2.80;;;10.10;99.90;;;;;;5077314;28;20445;-71
2023/11/10 12:02:39;;;;;;;3.33;3.00;;;10.10;99.90;;;;;;5075509;28;20514;-71
2023/11/10 12:05:12;;;;;;;3.30;3.00;;;10.10;99.90;;;;;;5077421;28;20468;-71
2023/11/10 12:07:44;;;;;;;5.17;4.07;;;10.20;99.90;;;;;;5075125;28;20442;-71
2023/11/10 12:10:14;;;;;;;4.83;3.90;;;10.20;99.90;;;;;;5076257;28;20457;-71
2023/11/10 12:12:44;;;;;;;4.80;4.40;;;10.20;99.90;;;;;;5076081;28;20817;-71
2023/11/10 12:15:13;;;;;;;4.77;4.27;;;10.20;99.90;;;;;;5074662;28;20437;-71
2023/11/10 12:17:43;;;;;;;10.80;5.37;;;10.30;99.90;;;;;;5075659;28;20530;-71
2023/11/10 12:20:11;;;;;;;7.63;5.23;;;10.30;99.90;;;;;;5075269;28;20477;-71
2023/11/10 12:22:52;;;;;;;5.70;5.30;;;10.40;99.90;;;;;;5075703;28;20460;-71
2023/11/10 12:25:20;;;;;;;6.70;6.00;;;10.40;99.90;;;;;;5075817;28;20449;-71
2023/11/10 12:27:50;;;;;;;7.17;6.53;;;10.40;99.90;;;;;;5075624;28;20860;-71
2023/11/10 12:30:18;;;;;;;7.70;7.10;;;10.50;99.90;;;;;;5075450;28;20525;-71
2023/11/10 12:32:48;;;;;;;8.63;7.10;;;10.50;99.90;;;;;;5075399;28;20476;-71
2023/11/10 12:35:19;;;;;;;7.90;7.30;;;10.50;99.90;;;;;;5075433;28;20445;-71
2023/11/10 12:37:52;;;;;;;7.73;7.13;;;10.50;99.90;;;;;;5075694;28;20485;-71
2023/11/10 12:40:22;;;;;;;8.50;7.70;;;10.50;99.90;;;;;;5075493;28;20453;-71
2023/11/10 12:42:50;;;;;;;8.20;7.60;;;10.50;99.90;;;;;;5075358;28;20464;-71
2023/11/10 12:45:19;;;;;;;7.73;7.10;;;10.50;99.90;;;;;;5075451;28;20433;-71
2023/11/10 12:47:49;;;;;;;7.40;6.90;;;10.40;99.90;;;;;;5075571;28;20433;-71
2023/11/10 12:50:30;;;;;;;7.47;6.87;;;10.40;99.90;;;;;;5074953;28;20457;-71
2023/11/10 12:52:59;;;;;;;7.33;6.83;;;10.40;99.90;;;;;;5075215;28;20498;-71
2023/11/10 12:55:28;;;;;;;7.80;7.10;;;10.40;99.90;;;;;;5075137;28;20491;-71
2023/11/10 12:57:57;;;;;;;7.43;6.83;;;10.40;99.90;;;;;;5074673;28;20475;-71
2023/11/10 13:00:25;;;;;;;6.60;6.10;;;10.30;99.90;;;;;;5074804;28;20449;-71
2023/11/10 13:02:53;;;;;;;6.83;6.33;;;10.30;99.90;;;;;;5074990;28;20441;-71
2023/11/10 13:05:23;;;;;;;6.67;6.07;;;10.30;99.90;;;;;;5075067;28;20558;-71